Time;durP1;ratioP1;P1;durP2;ratioP2;P2;SDS_P1;SDS_P2;PMS_P1;PMS_P2;Temp;Humidity;BMP_temperature;BMP_pressure;BME280_temperature;BME280_humidity;BME280_pressure;Samples;Min_cycle;Max_cycle;Signal;HPM_P1;HPM_P2
2023/04/24 00:01:31;;;;;;;2.65;1.15;;;10.50;99.90;;;;;;4884116;28;90000;-33
2023/04/24 00:03:59;;;;;;;0.80;0.75;;;10.50;99.90;;;;;;4883220;28;90480;-33
2023/04/24 00:06:32;;;;;;;1.30;1.23;;;10.40;99.90;;;;;;4882977;28;89041;-31
2023/04/24 00:08:59;;;;;;;1.90;1.80;;;10.40;99.90;;;;;;4883697;28;90130;-30
2023/04/24 00:11:24;;;;;;;1.63;1.52;;;10.40;99.90;;;;;;4873048;28;90044;-33
2023/04/24 00:13:50;;;;;;;1.58;1.48;;;10.30;99.90;;;;;;4881255;28;88704;-32
2023/04/24 00:16:15;;;;;;;1.58;1.48;;;10.30;99.90;;;;;;4883398;28;91244;-33
2023/04/24 00:18:41;;;;;;;1.80;1.70;;;10.20;99.90;;;;;;4883430;28;89277;-31
2023/04/24 00:21:07;;;;;;;1.85;1.60;;;10.20;99.90;;;;;;4883546;28;91781;-30
2023/04/24 00:23:32;;;;;;;2.75;1.83;;;10.10;99.90;;;;;;4883354;28;90317;-31
2023/04/24 00:25:58;;;;;;;5.60;2.40;;;10.10;99.90;;;;;;4883492;28;89231;-34
2023/04/24 00:28:23;;;;;;;2.17;1.98;;;10.10;99.90;;;;;;4882519;28;89146;-35
2023/04/24 00:30:49;;;;;;;2.33;2.17;;;10.10;99.90;;;;;;4883901;28;90313;-31
2023/04/24 00:33:15;;;;;;;2.70;2.42;;;10.10;99.90;;;;;;4882286;28;90598;-35
2023/04/24 00:35:40;;;;;;;3.10;2.67;;;10.00;99.90;;;;;;4883438;28;90409;-31
2023/04/24 00:38:06;;;;;;;3.03;2.72;;;10.00;99.90;;;;;;4883393;28;89330;-34
2023/04/24 00:40:31;;;;;;;4.22;3.35;;;10.00;99.90;;;;;;4882604;28;88869;-32
2023/04/24 00:42:57;;;;;;;2.25;2.05;;;10.00;99.90;;;;;;4883671;28;89465;-33
2023/04/24 00:45:23;;;;;;;2.92;2.72;;;9.90;99.90;;;;;;4882620;28;89711;-33
2023/04/24 00:47:50;;;;;;;2.83;2.63;;;9.90;99.90;;;;;;4883488;28;88435;-32
2023/04/24 00:50:16;;;;;;;3.15;2.95;;;9.90;99.90;;;;;;4883506;28;90504;-30
2023/04/24 00:52:42;;;;;;;2.53;2.33;;;9.90;99.90;;;;;;4882885;28;89786;-29
2023/04/24 00:55:08;;;;;;;2.58;2.35;;;9.90;99.90;;;;;;4897830;28;89782;-30
2023/04/24 00:57:34;;;;;;;2.38;2.17;;;9.90;99.90;;;;;;4883173;28;89012;-32
2023/04/24 00:59:59;;;;;;;2.55;2.35;;;9.90;99.90;;;;;;4883174;28;90304;-32
2023/04/24 01:02:26;;;;;;;2.47;2.25;;;9.90;99.90;;;;;;4882531;28;90043;-31
2023/04/24 01:04:51;;;;;;;2.67;2.38;;;9.90;99.90;;;;;;4882762;28;89771;-30
2023/04/24 01:07:20;;;;;;;3.28;2.40;;;9.90;99.90;;;;;;4882499;28;89185;-34
2023/04/24 01:09:48;;;;;;;2.55;2.35;;;9.80;99.90;;;;;;4883498;28;90163;-31
2023/04/24 01:12:15;;;;;;;1.75;1.63;;;9.80;99.90;;;;;;4869981;28;90169;-31
2023/04/24 01:14:40;;;;;;;2.30;2.10;;;9.80;99.90;;;;;;4882652;28;89499;-31
2023/04/24 01:17:07;;;;;;;1.98;1.88;;;9.70;99.90;;;;;;4882711;28;88384;-33
2023/04/24 01:19:32;;;;;;;1.98;1.85;;;9.60;99.90;;;;;;4883086;28;89731;-31
2023/04/24 01:22:01;;;;;;;2.38;2.15;;;9.60;99.90;;;;;;4881941;28;91073;-34
2023/04/24 01:24:28;;;;;;;1.90;1.80;;;9.60;99.90;;;;;;4882740;28;89556;-32
2023/04/24 01:26:53;;;;;;;2.63;2.42;;;9.60;99.90;;;;;;4882635;28;89203;-30
2023/04/24 01:29:19;;;;;;;6.75;2.83;;;9.60;99.90;;;;;;4882287;28;89425;-29
2023/04/24 01:31:45;;;;;;;2.50;2.30;;;9.70;99.90;;;;;;4882522;28;90262;-32
2023/04/24 01:34:11;;;;;;;2.75;2.50;;;9.70;99.90;;;;;;4882402;28;91936;-33
2023/04/24 01:36:38;;;;;;;2.58;2.38;;;9.60;99.90;;;;;;4882799;28;89867;-32
2023/04/24 01:39:05;;;;;;;3.17;2.97;;;9.60;99.90;;;;;;4882834;28;89902;-33
2023/04/24 01:41:31;;;;;;;2.70;2.50;;;9.60;99.90;;;;;;4882179;28;89250;-29
2023/04/24 01:43:58;;;;;;;2.92;2.72;;;9.50;99.90;;;;;;4882739;28;89218;-35
2023/04/24 01:46:24;;;;;;;3.05;2.85;;;9.60;99.90;;;;;;4882468;28;89820;-31
2023/04/24 01:48:51;;;;;;;2.55;2.35;;;9.50;99.90;;;;;;4882059;28;90904;-33
2023/04/24 01:51:17;;;;;;;2.95;2.75;;;9.60;99.90;;;;;;4881769;28;89921;-30
2023/04/24 01:53:42;;;;;;;3.58;3.28;;;9.50;99.90;;;;;;4882674;28;89322;-34
2023/04/24 01:56:09;;;;;;;3.28;2.97;;;9.50;99.90;;;;;;4881626;28;88268;-33
2023/04/24 01:58:35;;;;;;;2.85;2.65;;;9.50;99.90;;;;;;4882619;28;90573;-35
2023/04/24 02:01:01;;;;;;;3.30;3.00;;;9.50;99.90;;;;;;4882695;28;90196;-31
2023/04/24 02:03:27;;;;;;;3.92;3.60;;;9.50;99.90;;;;;;4881547;28;89048;-31
2023/04/24 02:05:52;;;;;;;3.30;3.00;;;9.50;99.90;;;;;;4882845;28;88373;-31
2023/04/24 02:08:18;;;;;;;3.58;3.22;;;9.40;99.90;;;;;;4881763;28;90303;-30
2023/04/24 02:10:44;;;;;;;4.35;3.33;;;9.40;99.90;;;;;;4876732;28;90745;-35
2023/04/24 02:13:10;;;;;;;4.13;3.72;;;9.50;99.90;;;;;;4874162;28;89983;-32
2023/04/24 02:15:35;;;;;;;4.65;3.40;;;9.40;99.90;;;;;;4881335;28;90090;-30
2023/04/24 02:18:01;;;;;;;3.63;3.33;;;9.50;99.90;;;;;;4880950;28;90629;-30
2023/04/24 02:20:27;;;;;;;4.70;3.38;;;9.40;99.90;;;;;;4881187;28;89922;-30
2023/04/24 02:22:53;;;;;;;5.75;3.97;;;9.40;99.90;;;;;;4882480;28;90182;-30
2023/04/24 02:25:18;;;;;;;7.43;5.70;;;9.40;99.90;;;;;;4882008;28;89673;-29
2023/04/24 02:27:44;;;;;;;5.00;4.50;;;9.40;99.90;;;;;;4881960;28;89198;-35
2023/04/24 02:30:10;;;;;;;7.82;4.85;;;9.40;99.90;;;;;;4881526;28;89528;-30
2023/04/24 02:32:36;;;;;;;7.15;5.20;;;9.40;99.90;;;;;;4881770;28;89433;-32
2023/04/24 02:35:01;;;;;;;5.85;4.88;;;9.40;99.90;;;;;;4881428;28;90377;-32
2023/04/24 02:37:27;;;;;;;6.95;5.57;;;9.40;99.90;;;;;;4880828;28;90576;-34
2023/04/24 02:39:52;;;;;;;5.07;4.00;;;9.40;99.90;;;;;;4881743;28;90338;-33
2023/04/24 02:42:18;;;;;;;7.25;5.70;;;9.50;99.90;;;;;;4881684;28;89491;-30
2023/04/24 02:44:43;;;;;;;5.40;4.90;;;9.40;99.90;;;;;;4881008;28;88770;-34
2023/04/24 02:47:09;;;;;;;8.13;4.72;;;9.40;99.90;;;;;;4882107;28;89387;-30
2023/04/24 02:49:35;;;;;;;5.90;5.22;;;9.40;99.90;;;;;;4880892;28;89993;-30
2023/04/24 02:52:00;;;;;;;5.40;4.85;;;9.40;99.90;;;;;;4881659;28;89443;-34
2023/04/24 02:54:26;;;;;;;6.95;6.15;;;9.40;99.90;;;;;;4881010;28;88781;-32
2023/04/24 02:56:51;;;;;;;9.45;5.95;;;9.40;99.90;;;;;;4881304;28;90481;-35
2023/04/24 02:59:17;;;;;;;6.10;5.18;;;9.40;99.90;;;;;;4880999;28;90176;-31
2023/04/24 03:01:42;;;;;;;5.32;4.82;;;9.40;99.90;;;;;;4880771;28;90511;-35
2023/04/24 03:04:08;;;;;;;6.30;5.40;;;9.40;99.90;;;;;;4881446;28;89545;-31
2023/04/24 03:06:35;;;;;;;6.32;4.15;;;9.40;99.90;;;;;;4881102;28;90477;-29
2023/04/24 03:09:01;;;;;;;5.43;4.93;;;9.40;99.90;;;;;;4881400;28;90650;-33
2023/04/24 03:11:26;;;;;;;6.90;5.68;;;9.30;99.90;;;;;;4870747;28;89646;-33
2023/04/24 03:13:52;;;;;;;5.15;4.65;;;9.30;99.90;;;;;;4879387;28;89661;-34
2023/04/24 03:16:17;;;;;;;6.28;4.63;;;9.30;99.90;;;;;;4881883;28;90508;-32
2023/04/24 03:18:43;;;;;;;5.60;5.13;;;9.30;99.90;;;;;;4880486;28;89628;-30
2023/04/24 03:21:09;;;;;;;6.40;5.55;;;9.30;99.90;;;;;;4881541;28;89739;-31
2023/04/24 03:23:35;;;;;;;5.03;4.53;;;9.30;99.90;;;;;;4880251;28;89221;-31
2023/04/24 03:26:02;;;;;;;5.00;4.43;;;9.30;99.90;;;;;;4881322;28;91386;-30
2023/04/24 03:28:27;;;;;;;4.13;3.80;;;9.30;99.90;;;;;;4881001;28;89517;-35
2023/04/24 03:30:53;;;;;;;5.57;5.07;;;9.30;99.90;;;;;;4884192;28;89212;-34
2023/04/24 03:33:18;;;;;;;4.60;4.20;;;9.30;99.90;;;;;;4884256;28;88447;-33
2023/04/24 03:35:44;;;;;;;5.65;4.63;;;9.30;99.90;;;;;;4884658;28;91325;-35
2023/04/24 03:38:10;;;;;;;6.45;4.57;;;9.30;99.90;;;;;;4882707;28;89645;-29
2023/04/24 03:40:36;;;;;;;4.93;3.65;;;9.30;99.90;;;;;;4884712;28;89471;-32
2023/04/24 03:43:02;;;;;;;5.43;4.53;;;9.30;99.90;;;;;;4884515;28;89753;-30
2023/04/24 03:45:27;;;;;;;5.10;4.05;;;9.30;99.90;;;;;;4883929;28;89884;-35
2023/04/24 03:47:53;;;;;;;6.43;4.10;;;9.30;99.90;;;;;;4883607;28;89972;-33
2023/04/24 03:50:19;;;;;;;4.50;3.97;;;9.30;99.90;;;;;;4883946;28;90748;-34
2023/04/24 03:52:44;;;;;;;6.70;5.03;;;9.20;99.90;;;;;;4883885;28;88815;-32
2023/04/24 03:55:12;;;;;;;5.75;4.55;;;9.20;99.90;;;;;;4883674;28;89739;-29
2023/04/24 03:57:39;;;;;;;5.22;4.55;;;9.20;99.90;;;;;;4884003;28;89336;-36
2023/04/24 04:00:06;;;;;;;4.95;4.45;;;9.20;99.90;;;;;;4884530;28;89371;-32
2023/04/24 04:02:31;;;;;;;9.85;4.45;;;9.20;99.90;;;;;;4917442;23;89068;-32
2023/04/24 04:04:57;;;;;;;6.28;4.15;;;9.20;99.90;;;;;;4884593;28;90773;-30
2023/04/24 04:07:22;;;;;;;6.13;5.53;;;9.20;99.90;;;;;;4883780;28;89739;-31
2023/04/24 04:09:48;;;;;;;6.10;4.85;;;9.20;99.90;;;;;;4884308;28;89494;-32
2023/04/24 04:12:14;;;;;;;7.25;5.05;;;9.20;99.90;;;;;;4866853;28;88939;-32
2023/04/24 04:14:39;;;;;;;6.30;5.70;;;9.20;99.90;;;;;;4874885;28;89881;-31
2023/04/24 04:17:05;;;;;;;5.22;4.53;;;9.20;99.90;;;;;;4883615;28;89560;-32
2023/04/24 04:19:31;;;;;;;6.90;5.20;;;9.20;99.90;;;;;;4883933;28;90727;-32
2023/04/24 04:21:56;;;;;;;7.10;6.15;;;9.20;99.90;;;;;;4883646;28;90655;-33
2023/04/24 04:24:22;;;;;;;5.53;4.22;;;9.20;99.90;;;;;;4883625;28;89947;-31
2023/04/24 04:26:50;;;;;;;7.15;4.57;;;9.30;99.90;;;;;;4883417;28;89637;-33
2023/04/24 04:29:17;;;;;;;;;;;9.30;99.90;;;;;;4884069;28;89304;-36
2023/04/24 04:31:43;;;;;;;5.35;4.72;;;9.30;99.90;;;;;;4885083;28;89043;-30
2023/04/24 04:34:09;;;;;;;7.25;6.50;;;9.30;99.90;;;;;;4882662;28;90089;-32
2023/04/24 04:36:36;;;;;;;9.45;5.40;;;9.30;99.90;;;;;;4882703;28;90322;-31
2023/04/24 04:39:03;;;;;;;7.30;5.20;;;9.20;99.90;;;;;;4883515;28;91067;-31
2023/04/24 04:41:28;;;;;;;5.55;4.97;;;9.20;99.90;;;;;;4882027;28;88648;-32
2023/04/24 04:43:54;;;;;;;6.05;4.80;;;9.20;99.90;;;;;;4883574;28;90322;-34
2023/04/24 04:46:20;;;;;;;5.13;4.63;;;9.20;99.90;;;;;;4882789;28;91475;-34
2023/04/24 04:48:45;;;;;;;8.05;5.88;;;9.20;99.90;;;;;;4883399;28;90352;-31
2023/04/24 04:51:11;;;;;;;5.75;4.93;;;9.20;99.90;;;;;;4882927;28;88852;-32
2023/04/24 04:53:37;;;;;;;6.85;5.70;;;9.10;99.90;;;;;;4882955;28;89970;-32
2023/04/24 04:56:03;;;;;;;5.07;4.40;;;9.10;99.90;;;;;;4883195;28;89945;-33
2023/04/24 04:58:28;;;;;;;7.03;4.63;;;9.10;99.90;;;;;;4882213;28;89792;-35
2023/04/24 05:00:54;;;;;;;6.07;5.47;;;9.10;99.90;;;;;;4882685;28;89751;-33
2023/04/24 05:03:19;;;;;;;7.50;4.88;;;9.10;99.90;;;;;;4882356;28;90522;-31
2023/04/24 05:05:45;;;;;;;6.07;5.40;;;9.10;99.90;;;;;;4872126;28;90043;-30
2023/04/24 05:08:10;;;;;;;4.97;3.90;;;9.10;99.90;;;;;;4883197;28;89745;-30
2023/04/24 05:10:36;;;;;;;5.93;4.72;;;9.10;99.90;;;;;;4868221;28;87732;-32
2023/04/24 05:13:03;;;;;;;5.45;4.75;;;9.10;99.90;;;;;;4874431;28;89450;-30
2023/04/24 05:15:30;;;;;;;6.82;5.20;;;9.10;99.90;;;;;;4869603;28;90588;-33
2023/04/24 05:17:55;;;;;;;5.70;4.68;;;9.10;99.90;;;;;;4874351;28;88957;-30
2023/04/24 05:20:21;;;;;;;6.60;4.80;;;9.10;99.90;;;;;;4883045;28;89294;-34
2023/04/24 05:22:46;;;;;;;8.70;5.88;;;9.10;99.90;;;;;;4882085;28;90238;-34
2023/04/24 05:25:12;;;;;;;5.90;5.22;;;9.10;99.90;;;;;;4881491;28;91061;-32
2023/04/24 05:27:38;;;;;;;7.10;5.68;;;9.10;99.90;;;;;;4881936;28;91726;-32
2023/04/24 05:30:04;;;;;;;5.72;4.65;;;9.10;99.90;;;;;;4883052;28;89456;-35
2023/04/24 05:32:30;;;;;;;5.10;3.97;;;9.10;99.90;;;;;;4882324;28;90425;-34
2023/04/24 05:34:56;;;;;;;6.70;4.82;;;9.10;99.90;;;;;;4881031;28;90045;-31
2023/04/24 05:37:21;;;;;;;5.30;4.35;;;9.20;99.90;;;;;;4874709;28;89852;-33
2023/04/24 05:39:47;;;;;;;5.85;4.13;;;9.10;99.90;;;;;;4880838;28;89199;-33
2023/04/24 05:42:12;;;;;;;5.13;3.72;;;9.10;99.90;;;;;;4882017;28;90319;-33
2023/04/24 05:44:38;;;;;;;4.75;4.18;;;9.20;99.90;;;;;;4881941;28;90136;-30
2023/04/24 05:47:03;;;;;;;4.60;3.50;;;9.20;99.90;;;;;;4882036;28;89400;-34
2023/04/24 05:49:29;;;;;;;5.03;4.05;;;9.20;99.90;;;;;;4881976;28;89956;-31
2023/04/24 05:51:55;;;;;;;4.03;3.58;;;9.20;99.90;;;;;;4882050;28;89996;-28
2023/04/24 05:54:20;;;;;;;4.90;3.97;;;9.20;99.90;;;;;;4882107;28;89731;-32
2023/04/24 05:56:46;;;;;;;4.03;3.60;;;9.30;99.90;;;;;;4881994;28;89285;-32
2023/04/24 05:59:12;;;;;;;6.70;3.88;;;9.20;99.90;;;;;;4881708;28;88986;-33
2023/04/24 06:01:37;;;;;;;4.00;3.13;;;9.20;99.90;;;;;;4882326;28;91108;-34
2023/04/24 06:04:04;;;;;;;4.10;3.10;;;9.20;99.90;;;;;;4881503;28;89726;-33
2023/04/24 06:06:30;;;;;;;3.00;2.70;;;9.20;99.90;;;;;;4882627;28;90253;-33
2023/04/24 06:08:56;;;;;;;4.53;2.67;;;9.20;99.90;;;;;;4881752;28;88832;-33
2023/04/24 06:11:22;;;;;;;2.72;2.53;;;9.30;99.90;;;;;;4872119;28;90048;-35
2023/04/24 06:13:48;;;;;;;3.13;2.83;;;9.30;99.90;;;;;;4875945;28;90872;-32
2023/04/24 06:16:14;;;;;;;3.15;2.85;;;9.30;99.90;;;;;;4879368;28;89891;-31
2023/04/24 06:18:39;;;;;;;3.53;3.00;;;9.30;99.90;;;;;;4880130;28;88846;-32
2023/04/24 06:21:05;;;;;;;3.33;2.92;;;9.30;99.90;;;;;;4879552;28;91514;-32
2023/04/24 06:23:32;;;;;;;3.35;2.90;;;9.30;99.90;;;;;;4879717;28;90001;-32
2023/04/24 06:25:58;;;;;;;4.07;3.45;;;9.40;99.90;;;;;;4880085;28;89312;-31
2023/04/24 06:28:24;;;;;;;3.05;2.55;;;9.30;99.90;;;;;;4879506;28;88988;-33
2023/04/24 06:30:50;;;;;;;4.25;2.83;;;9.40;99.90;;;;;;4879714;28;90248;-33
2023/04/24 06:33:16;;;;;;;2.70;2.22;;;9.40;99.90;;;;;;4879266;28;89899;-31
2023/04/24 06:35:42;;;;;;;2.65;2.38;;;9.40;99.90;;;;;;4879695;28;88617;-31
2023/04/24 06:38:07;;;;;;;2.78;2.58;;;9.30;99.90;;;;;;4879341;28;89401;-30
2023/04/24 06:40:33;;;;;;;3.33;3.05;;;9.40;99.90;;;;;;4879255;28;90170;-31
2023/04/24 06:42:59;;;;;;;3.80;3.40;;;9.30;99.90;;;;;;4879431;28;89042;-35
2023/04/24 06:45:25;;;;;;;2.47;2.28;;;9.40;99.90;;;;;;4879353;28;90024;-30
2023/04/24 06:47:51;;;;;;;3.50;2.80;;;9.40;99.90;;;;;;4879597;28;89702;-32
2023/04/24 06:50:17;;;;;;;2.50;1.95;;;9.40;99.90;;;;;;4879375;28;88952;-33
2023/04/24 06:52:42;;;;;;;3.05;2.42;;;9.50;99.90;;;;;;4879058;28;89670;-30
2023/04/24 06:55:08;;;;;;;2.60;2.40;;;9.40;99.90;;;;;;4879452;28;89552;-35
2023/04/24 06:57:34;;;;;;;3.95;1.95;;;9.50;99.90;;;;;;4879315;28;89051;-33
2023/04/24 07:00:00;;;;;;;3.42;2.05;;;9.50;99.90;;;;;;4879128;28;90670;-30
2023/04/24 07:02:25;;;;;;;2.97;2.58;;;9.50;99.90;;;;;;4878768;28;90133;-34
2023/04/24 07:04:51;;;;;;;2.13;1.92;;;9.50;99.90;;;;;;4880620;28;90672;-32
2023/04/24 07:07:16;;;;;;;2.83;2.08;;;9.60;99.90;;;;;;4882746;28;88712;-34
2023/04/24 07:09:42;;;;;;;2.67;1.95;;;9.60;99.90;;;;;;4882503;28;90325;-34
2023/04/24 07:12:10;;;;;;;2.15;2.00;;;9.50;99.90;;;;;;4869587;28;89501;-33
2023/04/24 07:14:36;;;;;;;2.17;2.00;;;9.60;99.90;;;;;;4882482;28;89246;-31
2023/04/24 07:17:03;;;;;;;2.17;2.00;;;9.60;99.90;;;;;;4882024;28;88406;-34
2023/04/24 07:19:29;;;;;;;4.03;2.13;;;9.60;99.90;;;;;;4881793;28;90564;-35
2023/04/24 07:21:55;;;;;;;3.03;1.85;;;9.70;99.90;;;;;;4882393;28;89605;-33
2023/04/24 07:24:20;;;;;;;2.85;2.25;;;9.70;99.90;;;;;;4882084;28;89539;-33
2023/04/24 07:26:46;;;;;;;2.60;1.98;;;9.70;99.90;;;;;;4882145;28;89214;-33
2023/04/24 07:29:12;;;;;;;7.78;2.28;;;9.70;99.90;;;;;;4882236;28;89607;-33
2023/04/24 07:31:38;;;;;;;2.92;2.63;;;9.70;99.90;;;;;;4882018;28;90095;-31
2023/04/24 07:34:04;;;;;;;2.13;1.73;;;9.70;99.90;;;;;;4882457;28;89355;-34
2023/04/24 07:36:29;;;;;;;2.70;2.50;;;9.80;99.90;;;;;;4881694;28;88484;-34
2023/04/24 07:38:56;;;;;;;4.00;2.05;;;9.90;99.90;;;;;;4882565;28;90104;-30
2023/04/24 07:41:23;;;;;;;2.08;1.90;;;9.90;99.90;;;;;;4882094;28;89587;-31
2023/04/24 07:43:49;;;;;;;2.72;2.33;;;9.90;99.90;;;;;;4881650;28;89465;-34
2023/04/24 07:46:15;;;;;;;2.17;1.98;;;9.90;99.90;;;;;;4882659;28;88677;-36
2023/04/24 07:48:41;;;;;;;2.78;2.33;;;9.90;99.90;;;;;;4881965;28;90273;-35
2023/04/24 07:51:06;;;;;;;3.15;2.67;;;9.90;99.90;;;;;;4880535;28;90645;-32
2023/04/24 07:53:32;;;;;;;2.28;2.08;;;9.90;99.90;;;;;;4882073;28;90686;-32
2023/04/24 07:55:57;;;;;;;3.88;2.63;;;9.90;99.90;;;;;;4881865;28;88750;-33
2023/04/24 07:58:23;;;;;;;1.75;1.65;;;10.00;99.90;;;;;;4881567;28;90253;-35
2023/04/24 08:00:49;;;;;;;3.33;3.03;;;10.00;99.90;;;;;;4881345;28;91048;-33
2023/04/24 08:03:18;;;;;;;3.03;2.70;;;10.10;99.90;;;;;;4881319;28;89741;-32
2023/04/24 08:05:43;;;;;;;1.85;1.75;;;10.10;99.90;;;;;;4881971;28;89321;-33
2023/04/24 08:08:09;;;;;;;4.15;3.15;;;10.10;99.90;;;;;;4881609;28;90846;-35
2023/04/24 08:10:34;;;;;;;2.83;2.60;;;10.10;99.90;;;;;;4878314;28;89220;-31
2023/04/24 08:13:00;;;;;;;2.67;1.73;;;10.10;99.90;;;;;;4872698;28;89994;-34
2023/04/24 08:15:27;;;;;;;2.45;1.85;;;10.00;99.90;;;;;;4879732;28;89139;-31
2023/04/24 08:17:53;;;;;;;4.72;1.75;;;10.00;99.90;;;;;;4881228;28;90847;-33
2023/04/24 08:20:18;;;;;;;1.95;1.45;;;10.00;99.90;;;;;;4881616;28;89623;-32
2023/04/24 08:22:46;;;;;;;2.13;1.70;;;10.00;99.90;;;;;;4881566;28;89429;-32
2023/04/24 08:25:12;;;;;;;1.98;1.80;;;10.00;99.90;;;;;;4882013;28;90636;-31
2023/04/24 08:27:38;;;;;;;2.65;1.60;;;10.10;99.90;;;;;;4881377;28;90696;-33
2023/04/24 08:30:05;;;;;;;2.85;2.30;;;10.00;99.90;;;;;;4880467;28;89857;-35
2023/04/24 08:32:31;;;;;;;3.25;2.15;;;10.10;99.90;;;;;;4881847;28;90006;-31
2023/04/24 08:34:57;;;;;;;3.08;2.17;;;10.10;99.90;;;;;;4881387;28;88733;-35
2023/04/24 08:37:26;;;;;;;2.88;2.45;;;10.10;99.90;;;;;;4881423;28;90715;-32
2023/04/24 08:39:55;;;;;;;2.42;2.00;;;10.10;99.90;;;;;;4880096;28;90531;-34
2023/04/24 08:42:21;;;;;;;7.53;3.03;;;10.10;99.90;;;;;;4881615;28;90388;-33
2023/04/24 08:44:49;;;;;;;5.85;2.78;;;10.10;99.90;;;;;;4880987;28;90304;-32
2023/04/24 08:47:16;;;;;;;4.07;2.60;;;10.00;99.90;;;;;;4881088;28;90370;-31
2023/04/24 08:49:43;;;;;;;2.63;2.42;;;10.00;99.90;;;;;;4880551;28;89383;-30
2023/04/24 08:52:09;;;;;;;2.85;2.50;;;9.90;99.90;;;;;;4880391;28;89689;-36
2023/04/24 08:54:35;;;;;;;3.55;3.05;;;9.90;99.90;;;;;;4881227;28;89551;-31
2023/04/24 08:57:03;;;;;;;3.75;3.08;;;9.90;99.90;;;;;;4881800;28;90719;-32
2023/04/24 08:59:30;;;;;;;5.17;3.70;;;9.90;99.90;;;;;;4881818;28;89395;-35
2023/04/24 09:01:57;;;;;;;7.15;4.72;;;9.90;99.90;;;;;;4880934;28;89998;-35
2023/04/24 09:04:24;;;;;;;7.32;5.07;;;9.80;99.90;;;;;;4880261;28;89566;-32
2023/04/24 09:06:52;;;;;;;12.85;7.25;;;9.80;99.90;;;;;;4880884;28;90246;-35
2023/04/24 09:09:18;;;;;;;12.00;5.83;;;9.90;99.90;;;;;;4868756;28;90937;-32
2023/04/24 09:11:44;;;;;;;12.93;8.13;;;9.80;99.90;;;;;;4868515;28;89209;-32
2023/04/24 09:14:11;;;;;;;17.23;6.88;;;9.80;99.90;;;;;;4868453;28;90578;-33
2023/04/24 09:16:37;;;;;;;14.98;8.98;;;9.90;99.90;;;;;;4881215;28;91153;-35
2023/04/24 09:19:03;;;;;;;17.63;8.60;;;9.80;99.90;;;;;;4880341;28;88720;-34
2023/04/24 09:21:33;;;;;;;12.23;8.77;;;9.90;99.90;;;;;;4881038;28;89475;-35
2023/04/24 09:24:05;;;;;;;13.60;10.05;;;9.90;99.90;;;;;;4880761;28;88389;-30
2023/04/24 09:26:35;;;;;;;11.90;10.15;;;9.80;99.90;;;;;;4888311;28;90449;-34
2023/04/24 09:29:01;;;;;;;18.63;10.48;;;9.70;99.90;;;;;;4879095;28;91837;-31
2023/04/24 09:31:29;;;;;;;15.05;8.90;;;9.80;99.90;;;;;;4879605;28;90420;-36
2023/04/24 09:34:08;;;;;;;14.93;10.63;;;9.70;99.90;;;;;;4880716;28;89708;-33
2023/04/24 09:36:36;;;;;;;14.45;10.23;;;9.60;99.90;;;;;;4880165;28;90079;-32
2023/04/24 09:39:05;;;;;;;13.55;10.38;;;9.60;99.90;;;;;;4879996;28;90021;-30
2023/04/24 09:41:32;;;;;;;14.68;11.18;;;9.60;99.90;;;;;;4878981;28;89972;-32
2023/04/24 09:44:23;;;;;;;25.17;10.13;;;9.50;99.90;;;;;;4878710;28;88943;-33
2023/04/24 09:46:53;;;;;;;20.40;10.90;;;9.40;99.90;;;;;;4869056;28;90261;-35
2023/04/24 09:49:37;;;;;;;16.52;9.73;;;9.40;99.90;;;;;;4879075;28;90065;-32
2023/04/24 09:52:07;;;;;;;17.75;11.07;;;9.50;99.90;;;;;;4880229;28;89877;-34
2023/04/24 09:54:33;;;;;;;15.75;11.43;;;9.40;99.90;;;;;;4878551;28;88986;-32
2023/04/24 09:56:59;;;;;;;20.02;12.18;;;9.30;99.90;;;;;;4880086;28;90005;-30
2023/04/24 09:59:25;;;;;;;16.65;11.73;;;9.30;99.90;;;;;;4879231;28;89142;-30
2023/04/24 10:01:52;;;;;;;19.55;13.02;;;9.30;99.90;;;;;;4879400;28;89762;-32
2023/04/24 10:04:26;;;;;;;19.88;12.02;;;9.30;99.90;;;;;;4879165;28;88577;-35
2023/04/24 10:06:53;;;;;;;19.17;13.68;;;9.30;99.90;;;;;;4879137;28;89875;-32
2023/04/24 10:09:20;;;;;;;15.57;11.43;;;9.30;99.90;;;;;;4866426;28;92394;-35
2023/04/24 10:11:50;;;;;;;15.32;11.38;;;9.30;99.90;;;;;;4867122;28;89474;-32
2023/04/24 10:14:17;;;;;;;20.98;12.90;;;9.30;99.90;;;;;;4868015;28;89337;-30
2023/04/24 10:16:44;;;;;;;16.45;11.57;;;9.20;99.90;;;;;;4878825;28;91187;-33
2023/04/24 10:19:10;;;;;;;17.90;12.52;;;9.30;99.90;;;;;;4878577;28;90268;-34
2023/04/24 10:21:42;;;;;;;18.92;12.65;;;9.30;99.90;;;;;;4879414;28;89648;-31
2023/04/24 10:24:08;;;;;;;13.68;11.18;;;9.30;99.90;;;;;;4879166;28;89252;-34
2023/04/24 10:26:35;;;;;;;15.85;11.57;;;9.30;99.90;;;;;;4879856;28;90000;-31
2023/04/24 10:29:01;;;;;;;16.77;10.60;;;9.30;99.90;;;;;;4878657;28;90056;-32
2023/04/24 10:31:31;;;;;;;16.55;11.23;;;9.40;99.90;;;;;;4878986;28;89855;-36
2023/04/24 10:33:59;;;;;;;14.50;10.60;;;9.30;99.90;;;;;;4879605;28;88679;-33
2023/04/24 10:36:27;;;;;;;20.92;10.43;;;9.30;99.90;;;;;;4879336;28;90344;-33
2023/04/24 10:38:55;;;;;;;10.57;8.02;;;9.40;99.90;;;;;;4878730;28;89294;-35
2023/04/24 10:41:23;;;;;;;9.63;8.65;;;9.30;99.90;;;;;;4867164;28;89049;-33
2023/04/24 10:44:04;;;;;;;15.10;8.75;;;9.40;99.90;;;;;;4879433;28;90560;-35
2023/04/24 10:46:30;;;;;;;9.35;7.90;;;9.40;99.90;;;;;;4879114;28;89828;-32
2023/04/24 10:48:58;;;;;;;8.70;6.88;;;9.40;99.90;;;;;;4879591;28;89622;-35
2023/04/24 10:51:24;;;;;;;12.23;7.53;;;9.30;99.90;;;;;;4879838;28;89922;-36
2023/04/24 10:53:51;;;;;;;19.15;7.68;;;9.40;99.90;;;;;;4879950;28;88902;-30
2023/04/24 10:56:17;;;;;;;8.77;7.05;;;9.40;99.90;;;;;;4878704;28;90363;-35
2023/04/24 10:58:52;;;;;;;13.13;5.53;;;9.40;99.90;;;;;;4879004;28;90046;-33
2023/04/24 11:01:28;;;;;;;10.65;5.43;;;9.40;99.90;;;;;;4880076;28;90318;-30
2023/04/24 11:04:04;;;;;;;13.43;6.50;;;9.30;99.90;;;;;;4879036;28;90488;-30
2023/04/24 11:06:35;;;;;;;12.18;5.55;;;9.40;99.90;;;;;;4879515;28;90645;-31
2023/04/24 11:09:08;;;;;;;6.70;6.05;;;9.30;99.90;;;;;;4878035;28;90571;-33
2023/04/24 11:11:36;;;;;;;9.63;5.43;;;9.30;99.90;;;;;;4879251;28;89879;-31
2023/04/24 11:14:04;;;;;;;;;;;9.30;99.90;;;;;;4880107;28;89363;-29
2023/04/24 11:16:35;;;;;;;11.68;7.07;;;9.30;99.90;;;;;;4880664;28;90513;-32
2023/04/24 11:19:05;;;;;;;6.97;5.53;;;9.30;99.90;;;;;;4879303;28;89180;-34
2023/04/24 11:21:55;;;;;;;5.38;4.85;;;9.20;99.90;;;;;;4878372;28;90081;-32
2023/04/24 11:24:41;;;;;;;16.90;5.53;;;9.20;99.90;;;;;;4879649;28;89339;-33
2023/04/24 11:27:19;;;;;;;8.73;5.18;;;9.20;99.90;;;;;;4879221;28;93311;-31
2023/04/24 11:29:57;;;;;;;7.28;4.80;;;9.30;99.90;;;;;;4878495;28;89746;-35
2023/04/24 11:32:27;;;;;;;8.18;5.72;;;9.20;99.90;;;;;;4877384;28;89452;-34
2023/04/24 11:34:58;;;;;;;12.82;6.28;;;9.30;99.90;;;;;;4876478;28;90372;-32
2023/04/24 11:37:27;;;;;;;9.27;5.18;;;9.40;99.90;;;;;;4878636;28;89559;-32
2023/04/24 11:39:54;;;;;;;9.93;4.65;;;9.50;99.90;;;;;;4878948;28;90148;-33
2023/04/24 11:42:21;;;;;;;9.15;5.30;;;9.40;99.90;;;;;;4878777;28;89730;-33
2023/04/24 11:44:49;;;;;;;5.83;3.97;;;9.60;99.90;;;;;;4879432;28;88681;-30
2023/04/24 11:47:15;;;;;;;17.33;4.38;;;9.50;99.90;;;;;;4878655;28;90221;-30
2023/04/24 11:49:41;;;;;;;10.63;4.47;;;9.50;99.90;;;;;;4879328;28;89586;-32
2023/04/24 11:52:07;;;;;;;9.85;3.67;;;9.50;99.90;;;;;;4881550;28;89995;-31
2023/04/24 11:54:32;;;;;;;7.07;3.67;;;9.50;99.90;;;;;;4880948;28;88430;-34
2023/04/24 11:56:58;;;;;;;16.05;4.35;;;9.50;99.90;;;;;;4868006;28;90351;-31
2023/04/24 11:59:24;;;;;;;11.93;3.70;;;9.50;99.90;;;;;;4871144;28;90289;-32
2023/04/24 12:01:50;;;;;;;10.00;4.20;;;9.50;99.90;;;;;;4874813;28;90447;-35
2023/04/24 12:04:17;;;;;;;7.30;2.75;;;9.50;99.90;;;;;;4879105;28;89098;-32
2023/04/24 12:07:02;;;;;;;8.70;4.50;;;9.50;99.90;;;;;;4875797;28;90059;-34
2023/04/24 12:09:28;;;;;;;3.95;3.55;;;9.60;99.90;;;;;;4881339;28;89484;-35
2023/04/24 12:11:58;;;;;;;6.85;3.83;;;9.60;99.90;;;;;;4869263;28;89771;-30
2023/04/24 12:14:24;;;;;;;4.80;3.63;;;9.70;99.90;;;;;;4876490;28;89640;-31
2023/04/24 12:16:52;;;;;;;9.88;4.40;;;9.70;99.90;;;;;;4874650;28;91139;-31
2023/04/24 12:19:22;;;;;;;9.02;3.53;;;9.70;99.90;;;;;;4880885;28;89084;-35
2023/04/24 12:22:03;;;;;;;6.95;3.95;;;9.70;99.90;;;;;;4880534;28;89586;-32
2023/04/24 12:24:30;;;;;;;5.93;3.40;;;9.60;99.90;;;;;;4879790;28;89319;-35
2023/04/24 12:26:56;;;;;;;8.52;4.20;;;9.50;99.90;;;;;;4880437;28;90062;-35
2023/04/24 12:29:21;;;;;;;6.20;3.15;;;9.50;99.90;;;;;;4880979;28;90619;-33
2023/04/24 12:31:47;;;;;;;6.47;4.25;;;9.40;99.90;;;;;;4879739;28;89016;-31
2023/04/24 12:34:23;;;;;;;9.32;4.25;;;9.40;99.90;;;;;;4880624;28;87673;-35
2023/04/24 12:36:49;;;;;;;4.75;3.17;;;9.30;99.90;;;;;;4880028;28;90211;-32
2023/04/24 12:39:19;;;;;;;7.65;3.75;;;9.30;99.90;;;;;;4880845;28;89694;-30
2023/04/24 12:41:56;;;;;;;6.13;3.72;;;9.40;99.90;;;;;;4881051;28;89779;-36
2023/04/24 12:44:34;;;;;;;6.22;3.58;;;9.50;99.90;;;;;;4879029;28;90383;-31
2023/04/24 12:47:00;;;;;;;4.97;2.90;;;9.60;99.90;;;;;;4881266;28;89682;-32
2023/04/24 12:49:26;;;;;;;3.03;2.13;;;9.50;99.90;;;;;;4879951;28;90916;-33
2023/04/24 12:51:52;;;;;;;4.15;3.22;;;9.60;99.90;;;;;;4881081;28;90619;-32